sensor_id;sensor_type;location;lat;lon;timestamp;P1;durP1;ratioP1;P2;durP2;ratioP2
37047;SDS011;23227;48.780;9.210;2022-09-09T00:01:16;1.97;;;0.90;;
37047;SDS011;23227;48.780;9.210;2022-09-09T00:04:27;6.73;;;1.20;;
37047;SDS011;23227;48.780;9.210;2022-09-09T00:07:34;3.93;;;1.60;;
37047;SDS011;23227;48.780;9.210;2022-09-09T00:10:42;4.40;;;1.40;;
37047;SDS011;23227;48.780;9.210;2022-09-09T00:13:47;4.28;;;1.50;;
37047;SDS011;23227;48.780;9.210;2022-09-09T00:16:53;4.70;;;1.43;;
37047;SDS011;23227;48.780;9.210;2022-09-09T00:19:59;6.50;;;1.97;;
37047;SDS011;23227;48.780;9.210;2022-09-09T00:23:08;5.50;;;1.93;;
37047;SDS011;23227;48.780;9.210;2022-09-09T00:26:16;11.30;;;1.50;;
37047;SDS011;23227;48.780;9.210;2022-09-09T00:29:25;3.33;;;1.20;;
37047;SDS011;23227;48.780;9.210;2022-09-09T00:32:31;3.10;;;1.13;;
37047;SDS011;23227;48.780;9.210;2022-09-09T00:35:37;3.63;;;1.17;;
37047;SDS011;23227;48.780;9.210;2022-09-09T00:38:42;5.37;;;0.97;;
37047;SDS011;23227;48.780;9.210;2022-09-09T00:41:49;4.20;;;1.20;;
37047;SDS011;23227;48.780;9.210;2022-09-09T00:45:02;4.13;;;1.13;;
37047;SDS011;23227;48.780;9.210;2022-09-09T00:48:13;3.53;;;0.90;;
37047;SDS011;23227;48.780;9.210;2022-09-09T00:51:17;6.30;;;1.30;;
37047;SDS011;23227;48.780;9.210;2022-09-09T00:54:32;6.27;;;1.07;;
37047;SDS011;23227;48.780;9.210;2022-09-09T00:57:40;4.20;;;1.03;;
37047;SDS011;23227;48.780;9.210;2022-09-09T01:00:46;6.50;;;0.88;;
37047;SDS011;23227;48.780;9.210;2022-09-09T01:03:51;4.20;;;1.00;;
37047;SDS011;23227;48.780;9.210;2022-09-09T01:06:56;6.20;;;1.53;;
37047;SDS011;23227;48.780;9.210;2022-09-09T01:10:03;2.50;;;0.90;;
37047;SDS011;23227;48.780;9.210;2022-09-09T01:13:11;2.20;;;0.80;;
37047;SDS011;23227;48.780;9.210;2022-09-09T01:16:18;3.90;;;1.10;;
37047;SDS011;23227;48.780;9.210;2022-09-09T01:19:24;4.10;;;0.77;;
37047;SDS011;23227;48.780;9.210;2022-09-09T01:22:35;5.55;;;1.13;;
37047;SDS011;23227;48.780;9.210;2022-09-09T01:29:17;5.13;;;0.90;;
37047;SDS011;23227;48.780;9.210;2022-09-09T01:32:37;5.40;;;1.30;;
37047;SDS011;23227;48.780;9.210;2022-09-09T01:35:43;2.63;;;1.03;;
37047;SDS011;23227;48.780;9.210;2022-09-09T01:38:49;2.73;;;1.33;;
37047;SDS011;23227;48.780;9.210;2022-09-09T01:41:53;1.85;;;0.85;;
37047;SDS011;23227;48.780;9.210;2022-09-09T01:44:57;7.40;;;1.30;;
37047;SDS011;23227;48.780;9.210;2022-09-09T01:47:59;7.00;;;1.35;;
37047;SDS011;23227;48.780;9.210;2022-09-09T01:51:04;6.13;;;0.90;;
37047;SDS011;23227;48.780;9.210;2022-09-09T01:54:07;8.48;;;1.55;;
37047;SDS011;23227;48.780;9.210;2022-09-09T01:57:13;5.53;;;1.33;;
37047;SDS011;23227;48.780;9.210;2022-09-09T02:00:18;4.10;;;1.00;;
37047;SDS011;23227;48.780;9.210;2022-09-09T02:03:22;2.67;;;1.08;;
37047;SDS011;23227;48.780;9.210;2022-09-09T02:06:28;6.53;;;1.47;;
37047;SDS011;23227;48.780;9.210;2022-09-09T02:09:33;6.23;;;1.83;;
37047;SDS011;23227;48.780;9.210;2022-09-09T02:12:39;3.33;;;1.00;;
37047;SDS011;23227;48.780;9.210;2022-09-09T02:15:43;3.90;;;1.00;;
37047;SDS011;23227;48.780;9.210;2022-09-09T02:18:50;2.23;;;0.80;;
37047;SDS011;23227;48.780;9.210;2022-09-09T02:21:55;4.00;;;0.93;;
37047;SDS011;23227;48.780;9.210;2022-09-09T02:24:58;2.87;;;0.60;;
37047;SDS011;23227;48.780;9.210;2022-09-09T02:28:03;2.10;;;1.00;;
37047;SDS011;23227;48.780;9.210;2022-09-09T02:31:08;3.23;;;0.80;;
37047;SDS011;23227;48.780;9.210;2022-09-09T02:34:11;4.65;;;0.90;;
37047;SDS011;23227;48.780;9.210;2022-09-09T02:37:16;1.93;;;0.50;;
37047;SDS011;23227;48.780;9.210;2022-09-09T02:40:21;2.40;;;0.70;;
37047;SDS011;23227;48.780;9.210;2022-09-09T02:43:25;2.17;;;0.88;;
37047;SDS011;23227;48.780;9.210;2022-09-09T02:46:32;4.40;;;0.70;;
37047;SDS011;23227;48.780;9.210;2022-09-09T02:49:40;2.20;;;0.50;;
37047;SDS011;23227;48.780;9.210;2022-09-09T02:56:13;4.37;;;0.60;;
37047;SDS011;23227;48.780;9.210;2022-09-09T02:59:18;6.40;;;0.80;;
37047;SDS011;23227;48.780;9.210;2022-09-09T03:02:21;2.00;;;0.50;;
37047;SDS011;23227;48.780;9.210;2022-09-09T03:05:26;1.23;;;0.50;;
37047;SDS011;23227;48.780;9.210;2022-09-09T03:08:29;2.03;;;0.70;;
37047;SDS011;23227;48.780;9.210;2022-09-09T03:11:31;1.50;;;0.50;;
37047;SDS011;23227;48.780;9.210;2022-09-09T03:14:35;1.75;;;0.50;;
37047;SDS011;23227;48.780;9.210;2022-09-09T03:17:39;1.63;;;0.90;;
37047;SDS011;23227;48.780;9.210;2022-09-09T03:20:42;6.72;;;0.80;;
37047;SDS011;23227;48.780;9.210;2022-09-09T03:23:44;0.82;;;0.40;;
37047;SDS011;23227;48.780;9.210;2022-09-09T03:26:47;1.60;;;0.55;;
37047;SDS011;23227;48.780;9.210;2022-09-09T03:29:53;2.17;;;0.60;;
37047;SDS011;23227;48.780;9.210;2022-09-09T03:32:55;4.73;;;0.70;;
37047;SDS011;23227;48.780;9.210;2022-09-09T03:35:58;2.53;;;0.65;;
37047;SDS011;23227;48.780;9.210;2022-09-09T03:39:01;1.02;;;0.43;;
37047;SDS011;23227;48.780;9.210;2022-09-09T03:42:05;2.03;;;0.40;;
37047;SDS011;23227;48.780;9.210;2022-09-09T03:45:09;1.23;;;0.40;;
37047;SDS011;23227;48.780;9.210;2022-09-09T03:48:12;1.03;;;0.50;;
37047;SDS011;23227;48.780;9.210;2022-09-09T03:51:15;1.27;;;0.40;;
37047;SDS011;23227;48.780;9.210;2022-09-09T03:54:18;1.30;;;0.35;;
37047;SDS011;23227;48.780;9.210;2022-09-09T03:57:20;5.75;;;0.70;;
37047;SDS011;23227;48.780;9.210;2022-09-09T04:00:24;2.55;;;0.90;;
37047;SDS011;23227;48.780;9.210;2022-09-09T04:03:28;1.40;;;0.40;;
37047;SDS011;23227;48.780;9.210;2022-09-09T04:09:33;0.53;;;0.40;;
37047;SDS011;23227;48.780;9.210;2022-09-09T04:12:36;5.85;;;0.70;;
37047;SDS011;23227;48.780;9.210;2022-09-09T04:15:40;2.07;;;0.70;;
37047;SDS011;23227;48.780;9.210;2022-09-09T04:18:43;1.33;;;0.40;;
37047;SDS011;23227;48.780;9.210;2022-09-09T04:21:45;3.05;;;0.50;;
37047;SDS011;23227;48.780;9.210;2022-09-09T04:24:51;0.83;;;0.40;;
37047;SDS011;23227;48.780;9.210;2022-09-09T04:27:54;2.05;;;0.50;;
37047;SDS011;23227;48.780;9.210;2022-09-09T04:30:58;2.92;;;0.70;;
37047;SDS011;23227;48.780;9.210;2022-09-09T04:34:06;3.97;;;1.00;;
37047;SDS011;23227;48.780;9.210;2022-09-09T04:37:09;2.58;;;0.82;;
37047;SDS011;23227;48.780;9.210;2022-09-09T04:40:11;3.38;;;0.60;;
37047;SDS011;23227;48.780;9.210;2022-09-09T04:43:14;5.72;;;1.10;;
37047;SDS011;23227;48.780;9.210;2022-09-09T04:46:18;5.50;;;1.23;;
37047;SDS011;23227;48.780;9.210;2022-09-09T04:49:21;10.90;;;1.40;;
37047;SDS011;23227;48.780;9.210;2022-09-09T04:52:24;8.25;;;1.58;;
37047;SDS011;23227;48.780;9.210;2022-09-09T04:55:26;5.75;;;1.75;;
37047;SDS011;23227;48.780;9.210;2022-09-09T04:58:30;5.30;;;1.20;;
37047;SDS011;23227;48.780;9.210;2022-09-09T05:04:37;5.57;;;1.80;;
37047;SDS011;23227;48.780;9.210;2022-09-09T05:07:40;5.63;;;1.50;;
37047;SDS011;23227;48.780;9.210;2022-09-09T05:10:42;4.10;;;1.50;;
37047;SDS011;23227;48.780;9.210;2022-09-09T05:13:45;8.82;;;1.58;;
37047;SDS011;23227;48.780;9.210;2022-09-09T05:16:49;6.45;;;1.25;;
37047;SDS011;23227;48.780;9.210;2022-09-09T05:19:52;6.20;;;1.77;;
37047;SDS011;23227;48.780;9.210;2022-09-09T05:22:55;8.43;;;2.10;;
37047;SDS011;23227;48.780;9.210;2022-09-09T05:25:58;5.93;;;2.40;;
37047;SDS011;23227;48.780;9.210;2022-09-09T05:29:01;6.40;;;2.00;;
37047;SDS011;23227;48.780;9.210;2022-09-09T05:32:05;3.47;;;1.45;;
37047;SDS011;23227;48.780;9.210;2022-09-09T05:35:07;3.67;;;1.73;;
37047;SDS011;23227;48.780;9.210;2022-09-09T05:38:11;4.50;;;1.77;;
37047;SDS011;23227;48.780;9.210;2022-09-09T05:41:13;10.53;;;2.10;;
37047;SDS011;23227;48.780;9.210;2022-09-09T05:44:17;20.50;;;3.07;;
37047;SDS011;23227;48.780;9.210;2022-09-09T05:47:21;17.90;;;2.08;;
37047;SDS011;23227;48.780;9.210;2022-09-09T05:50:24;4.17;;;1.70;;
37047;SDS011;23227;48.780;9.210;2022-09-09T05:53:31;16.20;;;3.07;;
37047;SDS011;23227;48.780;9.210;2022-09-09T05:56:35;13.03;;;1.73;;
37047;SDS011;23227;48.780;9.210;2022-09-09T05:59:37;9.93;;;2.33;;
37047;SDS011;23227;48.780;9.210;2022-09-09T06:02:41;9.07;;;1.88;;
37047;SDS011;23227;48.780;9.210;2022-09-09T06:05:45;7.83;;;1.43;;
37047;SDS011;23227;48.780;9.210;2022-09-09T06:08:48;7.40;;;1.60;;
37047;SDS011;23227;48.780;9.210;2022-09-09T06:11:52;5.87;;;1.77;;
37047;SDS011;23227;48.780;9.210;2022-09-09T06:14:56;5.97;;;1.73;;
37047;SDS011;23227;48.780;9.210;2022-09-09T06:18:00;5.88;;;1.40;;
37047;SDS011;23227;48.780;9.210;2022-09-09T06:21:03;2.40;;;1.03;;
37047;SDS011;23227;48.780;9.210;2022-09-09T06:24:08;2.73;;;1.00;;
37047;SDS011;23227;48.780;9.210;2022-09-09T06:27:11;1.40;;;0.73;;
37047;SDS011;23227;48.780;9.210;2022-09-09T06:33:19;5.95;;;1.63;;
37047;SDS011;23227;48.780;9.210;2022-09-09T06:36:23;1.60;;;0.77;;
37047;SDS011;23227;48.780;9.210;2022-09-09T06:39:26;4.93;;;0.97;;
37047;SDS011;23227;48.780;9.210;2022-09-09T06:42:29;3.17;;;1.00;;
37047;SDS011;23227;48.780;9.210;2022-09-09T06:45:32;2.17;;;0.80;;
37047;SDS011;23227;48.780;9.210;2022-09-09T06:48:39;2.67;;;0.80;;
37047;SDS011;23227;48.780;9.210;2022-09-09T06:51:42;4.20;;;1.23;;
37047;SDS011;23227;48.780;9.210;2022-09-09T06:54:45;5.78;;;0.90;;
37047;SDS011;23227;48.780;9.210;2022-09-09T06:57:47;3.85;;;0.98;;
37047;SDS011;23227;48.780;9.210;2022-09-09T07:00:51;9.43;;;2.30;;
37047;SDS011;23227;48.780;9.210;2022-09-09T07:03:56;6.72;;;2.20;;
37047;SDS011;23227;48.780;9.210;2022-09-09T07:07:00;8.73;;;1.80;;
37047;SDS011;23227;48.780;9.210;2022-09-09T07:10:02;5.53;;;2.10;;
37047;SDS011;23227;48.780;9.210;2022-09-09T07:13:06;8.10;;;1.40;;
37047;SDS011;23227;48.780;9.210;2022-09-09T07:16:09;5.10;;;1.17;;
37047;SDS011;23227;48.780;9.210;2022-09-09T07:19:15;3.93;;;1.70;;
37047;SDS011;23227;48.780;9.210;2022-09-09T07:22:17;13.13;;;1.80;;
37047;SDS011;23227;48.780;9.210;2022-09-09T07:25:21;5.90;;;1.30;;
37047;SDS011;23227;48.780;9.210;2022-09-09T07:28:24;15.65;;;2.22;;
37047;SDS011;23227;48.780;9.210;2022-09-09T07:34:33;8.77;;;1.67;;
37047;SDS011;23227;48.780;9.210;2022-09-09T07:37:35;3.10;;;1.00;;
37047;SDS011;23227;48.780;9.210;2022-09-09T07:40:38;3.88;;;0.98;;
37047;SDS011;23227;48.780;9.210;2022-09-09T07:43:41;11.35;;;1.33;;
37047;SDS011;23227;48.780;9.210;2022-09-09T07:46:45;7.20;;;2.00;;
37047;SDS011;23227;48.780;9.210;2022-09-09T07:49:50;2.60;;;0.83;;
37047;SDS011;23227;48.780;9.210;2022-09-09T07:52:52;1.37;;;0.70;;
37047;SDS011;23227;48.780;9.210;2022-09-09T07:55:55;4.00;;;1.00;;
37047;SDS011;23227;48.780;9.210;2022-09-09T07:59:05;3.13;;;0.70;;
37047;SDS011;23227;48.780;9.210;2022-09-09T08:02:09;2.70;;;1.27;;
37047;SDS011;23227;48.780;9.210;2022-09-09T08:05:13;3.20;;;1.02;;
37047;SDS011;23227;48.780;9.210;2022-09-09T08:08:16;2.90;;;0.63;;
37047;SDS011;23227;48.780;9.210;2022-09-09T08:11:18;2.08;;;0.63;;
37047;SDS011;23227;48.780;9.210;2022-09-09T08:14:21;3.45;;;0.88;;
37047;SDS011;23227;48.780;9.210;2022-09-09T08:20:28;9.93;;;0.70;;
37047;SDS011;23227;48.780;9.210;2022-09-09T08:23:31;3.43;;;0.77;;
37047;SDS011;23227;48.780;9.210;2022-09-09T08:26:35;3.20;;;0.70;;
37047;SDS011;23227;48.780;9.210;2022-09-09T08:29:38;9.17;;;0.70;;
37047;SDS011;23227;48.780;9.210;2022-09-09T08:32:41;1.77;;;0.73;;
37047;SDS011;23227;48.780;9.210;2022-09-09T08:35:50;1.33;;;0.50;;
37047;SDS011;23227;48.780;9.210;2022-09-09T08:38:54;4.57;;;1.00;;
37047;SDS011;23227;48.780;9.210;2022-09-09T08:42:02;5.03;;;0.70;;
37047;SDS011;23227;48.780;9.210;2022-09-09T08:45:19;1.80;;;0.70;;
37047;SDS011;23227;48.780;9.210;2022-09-09T08:48:33;2.30;;;0.60;;
37047;SDS011;23227;48.780;9.210;2022-09-09T08:51:44;5.07;;;0.70;;
37047;SDS011;23227;48.780;9.210;2022-09-09T08:54:46;2.90;;;1.00;;
37047;SDS011;23227;48.780;9.210;2022-09-09T08:57:53;4.87;;;0.70;;
37047;SDS011;23227;48.780;9.210;2022-09-09T09:01:00;6.03;;;0.80;;
37047;SDS011;23227;48.780;9.210;2022-09-09T09:04:15;4.33;;;0.83;;
37047;SDS011;23227;48.780;9.210;2022-09-09T09:07:34;4.60;;;0.70;;
37047;SDS011;23227;48.780;9.210;2022-09-09T09:10:45;4.80;;;0.53;;
37047;SDS011;23227;48.780;9.210;2022-09-09T09:13:50;2.43;;;0.40;;
37047;SDS011;23227;48.780;9.210;2022-09-09T09:16:57;4.13;;;0.60;;
37047;SDS011;23227;48.780;9.210;2022-09-09T09:20:01;1.90;;;0.70;;
37047;SDS011;23227;48.780;9.210;2022-09-09T09:23:09;1.30;;;0.80;;
37047;SDS011;23227;48.780;9.210;2022-09-09T09:26:16;5.43;;;0.97;;
37047;SDS011;23227;48.780;9.210;2022-09-09T09:29:20;1.70;;;0.70;;
37047;SDS011;23227;48.780;9.210;2022-09-09T09:32:23;3.17;;;0.57;;
37047;SDS011;23227;48.780;9.210;2022-09-09T09:35:27;1.57;;;0.50;;
37047;SDS011;23227;48.780;9.210;2022-09-09T09:38:31;0.95;;;0.30;;
37047;SDS011;23227;48.780;9.210;2022-09-09T09:41:55;6.00;;;1.23;;
37047;SDS011;23227;48.780;9.210;2022-09-09T09:45:06;1.70;;;1.00;;
37047;SDS011;23227;48.780;9.210;2022-09-09T09:48:12;1.60;;;0.50;;
37047;SDS011;23227;48.780;9.210;2022-09-09T09:51:22;2.77;;;0.40;;
37047;SDS011;23227;48.780;9.210;2022-09-09T09:54:27;2.10;;;0.40;;
37047;SDS011;23227;48.780;9.210;2022-09-09T09:57:31;1.37;;;0.50;;
37047;SDS011;23227;48.780;9.210;2022-09-09T10:03:37;2.70;;;0.43;;
37047;SDS011;23227;48.780;9.210;2022-09-09T10:06:41;2.27;;;0.30;;
37047;SDS011;23227;48.780;9.210;2022-09-09T10:09:45;1.00;;;0.40;;
37047;SDS011;23227;48.780;9.210;2022-09-09T10:12:53;2.10;;;0.80;;
37047;SDS011;23227;48.780;9.210;2022-09-09T10:16:04;3.20;;;0.50;;
37047;SDS011;23227;48.780;9.210;2022-09-09T10:19:13;3.33;;;0.60;;
37047;SDS011;23227;48.780;9.210;2022-09-09T10:22:19;2.97;;;0.50;;
37047;SDS011;23227;48.780;9.210;2022-09-09T10:25:35;4.23;;;0.97;;
37047;SDS011;23227;48.780;9.210;2022-09-09T10:28:54;10.77;;;1.27;;
37047;SDS011;23227;48.780;9.210;2022-09-09T10:32:14;3.20;;;0.67;;
37047;SDS011;23227;48.780;9.210;2022-09-09T10:35:30;3.03;;;0.70;;
37047;SDS011;23227;48.780;9.210;2022-09-09T10:38:37;2.37;;;0.70;;
37047;SDS011;23227;48.780;9.210;2022-09-09T10:41:44;1.60;;;0.80;;
37047;SDS011;23227;48.780;9.210;2022-09-09T10:44:54;3.93;;;0.80;;
37047;SDS011;23227;48.780;9.210;2022-09-09T10:48:06;6.50;;;1.10;;
37047;SDS011;23227;48.780;9.210;2022-09-09T10:51:22;2.63;;;0.50;;
37047;SDS011;23227;48.780;9.210;2022-09-09T10:54:30;2.83;;;1.00;;
37047;SDS011;23227;48.780;9.210;2022-09-09T10:57:39;5.10;;;0.90;;
37047;SDS011;23227;48.780;9.210;2022-09-09T11:00:45;3.93;;;0.80;;
37047;SDS011;23227;48.780;9.210;2022-09-09T11:03:50;2.97;;;0.70;;
37047;SDS011;23227;48.780;9.210;2022-09-09T11:06:56;4.35;;;1.38;;
37047;SDS011;23227;48.780;9.210;2022-09-09T11:09:59;3.30;;;0.68;;
37047;SDS011;23227;48.780;9.210;2022-09-09T11:13:14;3.85;;;0.63;;
37047;SDS011;23227;48.780;9.210;2022-09-09T11:16:21;4.68;;;0.77;;
37047;SDS011;23227;48.780;9.210;2022-09-09T11:19:28;3.03;;;0.73;;
37047;SDS011;23227;48.780;9.210;2022-09-09T11:22:35;3.55;;;1.20;;
37047;SDS011;23227;48.780;9.210;2022-09-09T11:25:42;2.10;;;0.77;;
37047;SDS011;23227;48.780;9.210;2022-09-09T11:28:54;3.53;;;0.90;;
37047;SDS011;23227;48.780;9.210;2022-09-09T11:32:20;2.00;;;0.30;;
37047;SDS011;23227;48.780;9.210;2022-09-09T11:35:33;4.37;;;0.50;;
37047;SDS011;23227;48.780;9.210;2022-09-09T11:38:44;1.70;;;0.20;;
37047;SDS011;23227;48.780;9.210;2022-09-09T11:41:47;1.37;;;0.40;;
37047;SDS011;23227;48.780;9.210;2022-09-09T11:44:52;1.20;;;0.43;;
37047;SDS011;23227;48.780;9.210;2022-09-09T11:47:56;3.77;;;0.70;;
37047;SDS011;23227;48.780;9.210;2022-09-09T11:51:01;0.40;;;0.30;;
37047;SDS011;23227;48.780;9.210;2022-09-09T11:57:30;0.60;;;0.20;;
37047;SDS011;23227;48.780;9.210;2022-09-09T12:00:37;0.67;;;0.20;;
37047;SDS011;23227;48.780;9.210;2022-09-09T12:03:41;0.60;;;0.40;;
37047;SDS011;23227;48.780;9.210;2022-09-09T12:06:48;2.33;;;0.80;;
37047;SDS011;23227;48.780;9.210;2022-09-09T12:09:55;1.50;;;0.60;;
37047;SDS011;23227;48.780;9.210;2022-09-09T12:13:07;1.17;;;0.50;;
37047;SDS011;23227;48.780;9.210;2022-09-09T12:19:35;2.03;;;0.40;;
37047;SDS011;23227;48.780;9.210;2022-09-09T12:22:41;0.17;;;0.17;;
37047;SDS011;23227;48.780;9.210;2022-09-09T12:25:51;2.93;;;0.33;;
37047;SDS011;23227;48.780;9.210;2022-09-09T12:29:01;2.60;;;0.23;;
37047;SDS011;23227;48.780;9.210;2022-09-09T12:32:10;2.53;;;0.40;;
37047;SDS011;23227;48.780;9.210;2022-09-09T12:35:17;5.53;;;0.70;;
37047;SDS011;23227;48.780;9.210;2022-09-09T12:38:24;0.70;;;0.40;;
37047;SDS011;23227;48.780;9.210;2022-09-09T12:41:29;0.50;;;0.30;;
37047;SDS011;23227;48.780;9.210;2022-09-09T12:44:32;1.95;;;0.32;;
37047;SDS011;23227;48.780;9.210;2022-09-09T12:47:38;3.25;;;0.30;;
37047;SDS011;23227;48.780;9.210;2022-09-09T12:50:43;1.90;;;0.40;;
37047;SDS011;23227;48.780;9.210;2022-09-09T12:53:47;2.13;;;0.33;;
37047;SDS011;23227;48.780;9.210;2022-09-09T12:56:51;1.90;;;0.50;;
37047;SDS011;23227;48.780;9.210;2022-09-09T13:00:03;1.05;;;0.35;;
37047;SDS011;23227;48.780;9.210;2022-09-09T13:03:16;3.13;;;0.50;;
37047;SDS011;23227;48.780;9.210;2022-09-09T13:06:20;2.23;;;0.60;;
37047;SDS011;23227;48.780;9.210;2022-09-09T13:09:29;1.58;;;0.43;;
37047;SDS011;23227;48.780;9.210;2022-09-09T13:12:31;2.38;;;0.40;;
37047;SDS011;23227;48.780;9.210;2022-09-09T13:15:34;2.97;;;0.30;;
37047;SDS011;23227;48.780;9.210;2022-09-09T13:18:40;3.60;;;0.40;;
37047;SDS011;23227;48.780;9.210;2022-09-09T13:21:43;1.53;;;0.30;;
37047;SDS011;23227;48.780;9.210;2022-09-09T13:24:45;0.60;;;0.28;;
37047;SDS011;23227;48.780;9.210;2022-09-09T13:27:52;1.08;;;0.28;;
37047;SDS011;23227;48.780;9.210;2022-09-09T13:30:58;0.50;;;0.22;;
37047;SDS011;23227;48.780;9.210;2022-09-09T13:34:11;0.95;;;0.35;;
37047;SDS011;23227;48.780;9.210;2022-09-09T13:37:18;4.30;;;0.63;;
37047;SDS011;23227;48.780;9.210;2022-09-09T13:40:24;1.42;;;0.50;;
37047;SDS011;23227;48.780;9.210;2022-09-09T13:43:27;1.45;;;0.30;;
37047;SDS011;23227;48.780;9.210;2022-09-09T13:46:32;1.90;;;0.43;;
37047;SDS011;23227;48.780;9.210;2022-09-09T13:49:37;1.63;;;0.35;;
37047;SDS011;23227;48.780;9.210;2022-09-09T13:52:40;2.40;;;0.32;;
37047;SDS011;23227;48.780;9.210;2022-09-09T13:55:42;1.13;;;0.22;;
37047;SDS011;23227;48.780;9.210;2022-09-09T13:58:50;0.98;;;0.40;;
37047;SDS011;23227;48.780;9.210;2022-09-09T14:01:53;2.03;;;0.57;;
37047;SDS011;23227;48.780;9.210;2022-09-09T14:04:57;1.08;;;0.38;;
37047;SDS011;23227;48.780;9.210;2022-09-09T14:07:59;1.65;;;0.60;;
37047;SDS011;23227;48.780;9.210;2022-09-09T14:11:02;0.85;;;0.30;;
37047;SDS011;23227;48.780;9.210;2022-09-09T14:14:05;4.22;;;0.65;;
37047;SDS011;23227;48.780;9.210;2022-09-09T14:17:08;2.65;;;0.52;;
37047;SDS011;23227;48.780;9.210;2022-09-09T14:20:12;1.17;;;0.65;;
37047;SDS011;23227;48.780;9.210;2022-09-09T14:23:16;0.57;;;0.22;;
37047;SDS011;23227;48.780;9.210;2022-09-09T14:26:20;0.70;;;0.50;;
37047;SDS011;23227;48.780;9.210;2022-09-09T14:29:22;2.95;;;0.82;;
37047;SDS011;23227;48.780;9.210;2022-09-09T14:32:26;2.05;;;0.40;;
37047;SDS011;23227;48.780;9.210;2022-09-09T14:35:31;1.58;;;0.25;;
37047;SDS011;23227;48.780;9.210;2022-09-09T14:38:35;2.08;;;0.50;;
37047;SDS011;23227;48.780;9.210;2022-09-09T14:41:40;0.98;;;0.40;;
37047;SDS011;23227;48.780;9.210;2022-09-09T14:44:42;1.95;;;0.30;;
37047;SDS011;23227;48.780;9.210;2022-09-09T14:47:45;1.02;;;0.25;;
37047;SDS011;23227;48.780;9.210;2022-09-09T14:50:49;1.40;;;0.40;;
37047;SDS011;23227;48.780;9.210;2022-09-09T14:53:52;2.25;;;0.43;;
37047;SDS011;23227;48.780;9.210;2022-09-09T14:56:55;0.95;;;0.32;;
37047;SDS011;23227;48.780;9.210;2022-09-09T14:59:58;1.30;;;0.30;;
37047;SDS011;23227;48.780;9.210;2022-09-09T15:03:02;1.50;;;0.35;;
37047;SDS011;23227;48.780;9.210;2022-09-09T15:06:07;6.55;;;0.47;;
37047;SDS011;23227;48.780;9.210;2022-09-09T15:09:11;1.67;;;0.35;;
37047;SDS011;23227;48.780;9.210;2022-09-09T15:18:19;2.55;;;0.32;;
37047;SDS011;23227;48.780;9.210;2022-09-09T15:24:26;1.38;;;0.73;;
37047;SDS011;23227;48.780;9.210;2022-09-09T15:27:29;3.22;;;0.32;;
37047;SDS011;23227;48.780;9.210;2022-09-09T15:30:32;1.83;;;0.40;;
37047;SDS011;23227;48.780;9.210;2022-09-09T15:33:35;1.38;;;0.30;;
37047;SDS011;23227;48.780;9.210;2022-09-09T15:36:40;0.68;;;0.35;;
37047;SDS011;23227;48.780;9.210;2022-09-09T15:39:44;1.55;;;0.40;;
37047;SDS011;23227;48.780;9.210;2022-09-09T15:42:46;2.17;;;0.40;;
37047;SDS011;23227;48.780;9.210;2022-09-09T15:45:51;4.65;;;0.40;;
37047;SDS011;23227;48.780;9.210;2022-09-09T15:48:57;2.70;;;0.50;;
37047;SDS011;23227;48.780;9.210;2022-09-09T15:52:02;3.07;;;0.83;;
37047;SDS011;23227;48.780;9.210;2022-09-09T15:55:05;2.13;;;0.40;;
37047;SDS011;23227;48.780;9.210;2022-09-09T15:58:09;5.17;;;1.13;;
37047;SDS011;23227;48.780;9.210;2022-09-09T16:01:13;2.13;;;0.60;;
37047;SDS011;23227;48.780;9.210;2022-09-09T16:04:17;4.10;;;0.50;;
37047;SDS011;23227;48.780;9.210;2022-09-09T16:07:25;3.13;;;0.50;;
37047;SDS011;23227;48.780;9.210;2022-09-09T16:10:28;2.77;;;0.40;;
37047;SDS011;23227;48.780;9.210;2022-09-09T16:13:32;3.23;;;0.40;;
37047;SDS011;23227;48.780;9.210;2022-09-09T16:16:35;2.43;;;0.50;;
37047;SDS011;23227;48.780;9.210;2022-09-09T16:19:38;1.88;;;0.60;;
37047;SDS011;23227;48.780;9.210;2022-09-09T16:22:42;3.60;;;0.50;;
37047;SDS011;23227;48.780;9.210;2022-09-09T16:25:52;1.77;;;0.43;;
37047;SDS011;23227;48.780;9.210;2022-09-09T16:28:55;2.13;;;0.60;;
37047;SDS011;23227;48.780;9.210;2022-09-09T16:35:05;2.60;;;0.60;;
37047;SDS011;23227;48.780;9.210;2022-09-09T16:38:09;4.87;;;1.37;;
37047;SDS011;23227;48.780;9.210;2022-09-09T16:41:12;2.93;;;0.50;;
37047;SDS011;23227;48.780;9.210;2022-09-09T16:44:16;1.53;;;0.37;;
37047;SDS011;23227;48.780;9.210;2022-09-09T16:47:20;3.93;;;0.63;;
37047;SDS011;23227;48.780;9.210;2022-09-09T16:50:25;1.30;;;0.50;;
37047;SDS011;23227;48.780;9.210;2022-09-09T16:53:29;0.90;;;0.47;;
37047;SDS011;23227;48.780;9.210;2022-09-09T16:56:32;2.00;;;0.30;;
37047;SDS011;23227;48.780;9.210;2022-09-09T16:59:37;2.47;;;1.20;;
37047;SDS011;23227;48.780;9.210;2022-09-09T17:02:40;1.08;;;0.80;;
37047;SDS011;23227;48.780;9.210;2022-09-09T17:05:43;2.58;;;0.50;;
37047;SDS011;23227;48.780;9.210;2022-09-09T17:08:47;0.75;;;0.28;;
37047;SDS011;23227;48.780;9.210;2022-09-09T17:11:50;1.83;;;0.33;;
37047;SDS011;23227;48.780;9.210;2022-09-09T17:14:53;0.40;;;0.27;;
37047;SDS011;23227;48.780;9.210;2022-09-09T17:17:57;1.07;;;0.33;;
37047;SDS011;23227;48.780;9.210;2022-09-09T17:21:02;1.45;;;0.40;;
37047;SDS011;23227;48.780;9.210;2022-09-09T17:24:06;0.70;;;0.50;;
37047;SDS011;23227;48.780;9.210;2022-09-09T17:27:09;0.40;;;0.30;;
37047;SDS011;23227;48.780;9.210;2022-09-09T17:30:12;0.90;;;0.43;;
37047;SDS011;23227;48.780;9.210;2022-09-09T17:33:16;1.77;;;0.40;;
37047;SDS011;23227;48.780;9.210;2022-09-09T17:36:19;2.00;;;0.70;;
37047;SDS011;23227;48.780;9.210;2022-09-09T17:39:24;2.17;;;0.63;;
37047;SDS011;23227;48.780;9.210;2022-09-09T17:42:27;2.83;;;1.40;;
37047;SDS011;23227;48.780;9.210;2022-09-09T17:45:29;2.47;;;1.42;;
37047;SDS011;23227;48.780;9.210;2022-09-09T17:48:33;1.17;;;0.70;;
37047;SDS011;23227;48.780;9.210;2022-09-09T17:51:36;2.30;;;0.70;;
37047;SDS011;23227;48.780;9.210;2022-09-09T17:54:40;1.10;;;0.50;;
37047;SDS011;23227;48.780;9.210;2022-09-09T17:57:43;1.90;;;0.40;;
37047;SDS011;23227;48.780;9.210;2022-09-09T18:00:47;3.13;;;0.90;;
37047;SDS011;23227;48.780;9.210;2022-09-09T18:03:50;3.33;;;0.50;;
37047;SDS011;23227;48.780;9.210;2022-09-09T18:06:53;3.47;;;0.60;;
37047;SDS011;23227;48.780;9.210;2022-09-09T18:09:57;5.00;;;0.60;;
37047;SDS011;23227;48.780;9.210;2022-09-09T18:13:00;1.50;;;0.50;;
37047;SDS011;23227;48.780;9.210;2022-09-09T18:16:05;1.80;;;0.52;;
37047;SDS011;23227;48.780;9.210;2022-09-09T18:19:09;3.40;;;0.53;;
37047;SDS011;23227;48.780;9.210;2022-09-09T18:22:14;2.33;;;0.30;;
37047;SDS011;23227;48.780;9.210;2022-09-09T18:25:18;1.83;;;0.70;;
37047;SDS011;23227;48.780;9.210;2022-09-09T18:28:20;0.87;;;0.40;;
37047;SDS011;23227;48.780;9.210;2022-09-09T18:31:25;2.83;;;0.77;;
37047;SDS011;23227;48.780;9.210;2022-09-09T18:34:29;3.50;;;2.07;;
37047;SDS011;23227;48.780;9.210;2022-09-09T18:37:32;3.03;;;0.85;;
37047;SDS011;23227;48.780;9.210;2022-09-09T18:40:37;2.20;;;0.80;;
37047;SDS011;23227;48.780;9.210;2022-09-09T18:43:40;2.23;;;1.07;;
37047;SDS011;23227;48.780;9.210;2022-09-09T18:49:46;1.47;;;0.60;;
37047;SDS011;23227;48.780;9.210;2022-09-09T18:52:50;1.83;;;0.60;;
37047;SDS011;23227;48.780;9.210;2022-09-09T18:55:57;1.30;;;0.50;;
37047;SDS011;23227;48.780;9.210;2022-09-09T18:59:03;1.93;;;1.10;;
37047;SDS011;23227;48.780;9.210;2022-09-09T19:02:08;3.00;;;0.83;;
37047;SDS011;23227;48.780;9.210;2022-09-09T19:05:12;3.07;;;0.90;;
37047;SDS011;23227;48.780;9.210;2022-09-09T19:08:14;2.75;;;0.60;;
37047;SDS011;23227;48.780;9.210;2022-09-09T19:11:19;2.53;;;0.88;;
37047;SDS011;23227;48.780;9.210;2022-09-09T19:14:24;7.53;;;0.47;;
37047;SDS011;23227;48.780;9.210;2022-09-09T19:17:27;1.33;;;0.52;;
37047;SDS011;23227;48.780;9.210;2022-09-09T19:20:30;3.97;;;0.90;;
37047;SDS011;23227;48.780;9.210;2022-09-09T19:23:33;1.70;;;0.65;;